sensor_id;sensor_type;location;lat;lon;timestamp;P1;durP1;ratioP1;P2;durP2;ratioP2
20776;SDS011;10548;47.504;8.248;2023-03-08T00:02:23;21.20;;;12.00;;
20776;SDS011;10548;47.504;8.248;2023-03-08T00:04:52;23.93;;;12.33;;
20776;SDS011;10548;47.504;8.248;2023-03-08T00:07:21;22.20;;;12.53;;
20776;SDS011;10548;47.504;8.248;2023-03-08T00:09:48;27.57;;;12.23;;
20776;SDS011;10548;47.504;8.248;2023-03-08T00:12:15;20.37;;;12.13;;
20776;SDS011;10548;47.504;8.248;2023-03-08T00:14:44;23.67;;;12.93;;
20776;SDS011;10548;47.504;8.248;2023-03-08T00:17:12;19.63;;;12.27;;
20776;SDS011;10548;47.504;8.248;2023-03-08T00:19:39;20.30;;;12.13;;
20776;SDS011;10548;47.504;8.248;2023-03-08T00:22:06;22.40;;;11.83;;
20776;SDS011;10548;47.504;8.248;2023-03-08T00:24:34;21.87;;;12.53;;
20776;SDS011;10548;47.504;8.248;2023-03-08T00:27:01;21.40;;;12.20;;
20776;SDS011;10548;47.504;8.248;2023-03-08T00:29:28;21.63;;;12.23;;
20776;SDS011;10548;47.504;8.248;2023-03-08T00:31:56;22.67;;;12.27;;
20776;SDS011;10548;47.504;8.248;2023-03-08T00:34:23;21.37;;;12.20;;
20776;SDS011;10548;47.504;8.248;2023-03-08T00:36:50;22.10;;;11.90;;
20776;SDS011;10548;47.504;8.248;2023-03-08T00:39:17;27.40;;;13.50;;
20776;SDS011;10548;47.504;8.248;2023-03-08T00:41:45;22.00;;;12.53;;
20776;SDS011;10548;47.504;8.248;2023-03-08T00:44:12;25.20;;;12.73;;
20776;SDS011;10548;47.504;8.248;2023-03-08T00:46:39;27.70;;;12.77;;
20776;SDS011;10548;47.504;8.248;2023-03-08T00:49:06;27.47;;;13.83;;
20776;SDS011;10548;47.504;8.248;2023-03-08T00:51:34;23.57;;;12.90;;
20776;SDS011;10548;47.504;8.248;2023-03-08T00:54:01;23.63;;;13.40;;
20776;SDS011;10548;47.504;8.248;2023-03-08T00:56:28;29.20;;;13.40;;
20776;SDS011;10548;47.504;8.248;2023-03-08T00:58:55;24.00;;;13.00;;
20776;SDS011;10548;47.504;8.248;2023-03-08T01:01:22;24.37;;;12.77;;
20776;SDS011;10548;47.504;8.248;2023-03-08T01:03:50;22.40;;;12.53;;
20776;SDS011;10548;47.504;8.248;2023-03-08T01:06:17;22.33;;;12.30;;
20776;SDS011;10548;47.504;8.248;2023-03-08T01:08:44;32.60;;;13.40;;
20776;SDS011;10548;47.504;8.248;2023-03-08T01:11:16;25.50;;;13.60;;
20776;SDS011;10548;47.504;8.248;2023-03-08T01:13:51;21.20;;;11.80;;
20776;SDS011;10548;47.504;8.248;2023-03-08T01:16:23;19.53;;;12.40;;
20776;SDS011;10548;47.504;8.248;2023-03-08T01:18:53;21.60;;;12.80;;
20776;SDS011;10548;47.504;8.248;2023-03-08T01:21:20;22.83;;;13.60;;
20776;SDS011;10548;47.504;8.248;2023-03-08T01:23:48;24.53;;;13.07;;
20776;SDS011;10548;47.504;8.248;2023-03-08T01:26:17;21.97;;;13.07;;
20776;SDS011;10548;47.504;8.248;2023-03-08T01:28:46;23.90;;;13.33;;
20776;SDS011;10548;47.504;8.248;2023-03-08T01:31:14;29.87;;;13.83;;
20776;SDS011;10548;47.504;8.248;2023-03-08T01:33:43;23.23;;;11.87;;
20776;SDS011;10548;47.504;8.248;2023-03-08T01:36:13;22.27;;;12.60;;
20776;SDS011;10548;47.504;8.248;2023-03-08T01:38:43;22.30;;;13.77;;
20776;SDS011;10548;47.504;8.248;2023-03-08T01:41:15;22.93;;;12.47;;
20776;SDS011;10548;47.504;8.248;2023-03-08T01:43:56;25.07;;;13.10;;
20776;SDS011;10548;47.504;8.248;2023-03-08T01:46:30;24.90;;;13.23;;
20776;SDS011;10548;47.504;8.248;2023-03-08T01:49:21;23.00;;;13.87;;
20776;SDS011;10548;47.504;8.248;2023-03-08T01:52:11;25.37;;;12.57;;
20776;SDS011;10548;47.504;8.248;2023-03-08T01:54:55;23.40;;;12.40;;
20776;SDS011;10548;47.504;8.248;2023-03-08T01:57:45;24.17;;;12.33;;
20776;SDS011;10548;47.504;8.248;2023-03-08T02:00:27;23.57;;;11.53;;
20776;SDS011;10548;47.504;8.248;2023-03-08T02:03:00;19.10;;;11.97;;
20776;SDS011;10548;47.504;8.248;2023-03-08T02:05:30;20.40;;;11.90;;
20776;SDS011;10548;47.504;8.248;2023-03-08T02:08:11;20.67;;;12.13;;
20776;SDS011;10548;47.504;8.248;2023-03-08T02:10:39;21.77;;;12.73;;
20776;SDS011;10548;47.504;8.248;2023-03-08T02:13:06;22.90;;;12.83;;
20776;SDS011;10548;47.504;8.248;2023-03-08T02:15:38;27.70;;;13.67;;
20776;SDS011;10548;47.504;8.248;2023-03-08T02:18:06;22.97;;;12.80;;
20776;SDS011;10548;47.504;8.248;2023-03-08T02:20:37;24.53;;;13.23;;
20776;SDS011;10548;47.504;8.248;2023-03-08T02:23:07;23.03;;;12.87;;
20776;SDS011;10548;47.504;8.248;2023-03-08T02:25:40;26.07;;;13.67;;
20776;SDS011;10548;47.504;8.248;2023-03-08T02:28:15;28.70;;;14.27;;
20776;SDS011;10548;47.504;8.248;2023-03-08T02:30:43;26.37;;;12.93;;
20776;SDS011;10548;47.504;8.248;2023-03-08T02:33:10;25.80;;;12.83;;
20776;SDS011;10548;47.504;8.248;2023-03-08T02:35:37;27.47;;;12.73;;
20776;SDS011;10548;47.504;8.248;2023-03-08T02:38:25;27.47;;;13.80;;
20776;SDS011;10548;47.504;8.248;2023-03-08T02:40:52;24.07;;;13.07;;
20776;SDS011;10548;47.504;8.248;2023-03-08T02:43:19;23.07;;;13.37;;
20776;SDS011;10548;47.504;8.248;2023-03-08T02:45:46;25.00;;;14.00;;
20776;SDS011;10548;47.504;8.248;2023-03-08T02:48:14;26.67;;;13.23;;
20776;SDS011;10548;47.504;8.248;2023-03-08T02:50:41;22.83;;;13.27;;
20776;SDS011;10548;47.504;8.248;2023-03-08T02:53:09;27.07;;;13.93;;
20776;SDS011;10548;47.504;8.248;2023-03-08T02:55:36;25.73;;;13.67;;
20776;SDS011;10548;47.504;8.248;2023-03-08T02:58:08;25.37;;;12.90;;
20776;SDS011;10548;47.504;8.248;2023-03-08T03:00:36;24.00;;;14.10;;
20776;SDS011;10548;47.504;8.248;2023-03-08T03:03:04;20.77;;;12.33;;
20776;SDS011;10548;47.504;8.248;2023-03-08T03:05:31;24.60;;;13.70;;
20776;SDS011;10548;47.504;8.248;2023-03-08T03:08:01;28.83;;;14.70;;
20776;SDS011;10548;47.504;8.248;2023-03-08T03:10:28;23.63;;;13.87;;
20776;SDS011;10548;47.504;8.248;2023-03-08T03:12:56;27.80;;;13.93;;
20776;SDS011;10548;47.504;8.248;2023-03-08T03:15:27;24.20;;;13.87;;
20776;SDS011;10548;47.504;8.248;2023-03-08T03:17:56;26.97;;;15.13;;
20776;SDS011;10548;47.504;8.248;2023-03-08T03:20:24;26.10;;;13.77;;
20776;SDS011;10548;47.504;8.248;2023-03-08T03:22:51;26.07;;;14.07;;
20776;SDS011;10548;47.504;8.248;2023-03-08T03:25:24;26.50;;;14.30;;
20776;SDS011;10548;47.504;8.248;2023-03-08T03:27:52;26.67;;;13.63;;
20776;SDS011;10548;47.504;8.248;2023-03-08T03:30:21;25.73;;;14.50;;
20776;SDS011;10548;47.504;8.248;2023-03-08T03:32:49;20.37;;;13.00;;
20776;SDS011;10548;47.504;8.248;2023-03-08T03:35:22;28.87;;;14.30;;
20776;SDS011;10548;47.504;8.248;2023-03-08T03:37:49;26.23;;;13.80;;
20776;SDS011;10548;47.504;8.248;2023-03-08T03:40:16;23.40;;;13.80;;
20776;SDS011;10548;47.504;8.248;2023-03-08T03:42:48;24.33;;;13.57;;
20776;SDS011;10548;47.504;8.248;2023-03-08T03:45:16;27.03;;;13.67;;
20776;SDS011;10548;47.504;8.248;2023-03-08T03:47:44;24.47;;;13.23;;
20776;SDS011;10548;47.504;8.248;2023-03-08T03:50:13;25.00;;;14.33;;
20776;SDS011;10548;47.504;8.248;2023-03-08T03:52:54;28.20;;;14.20;;
20776;SDS011;10548;47.504;8.248;2023-03-08T03:55:21;25.83;;;13.73;;
20776;SDS011;10548;47.504;8.248;2023-03-08T03:57:48;26.40;;;14.47;;
20776;SDS011;10548;47.504;8.248;2023-03-08T04:00:17;24.53;;;13.63;;
20776;SDS011;10548;47.504;8.248;2023-03-08T04:02:52;28.57;;;15.03;;
20776;SDS011;10548;47.504;8.248;2023-03-08T04:05:20;26.70;;;15.07;;
20776;SDS011;10548;47.504;8.248;2023-03-08T04:07:50;25.07;;;14.40;;
20776;SDS011;10548;47.504;8.248;2023-03-08T04:10:20;31.77;;;15.27;;
20776;SDS011;10548;47.504;8.248;2023-03-08T04:12:49;26.07;;;14.57;;
20776;SDS011;10548;47.504;8.248;2023-03-08T04:15:19;24.73;;;14.87;;
20776;SDS011;10548;47.504;8.248;2023-03-08T04:17:46;23.33;;;13.30;;
20776;SDS011;10548;47.504;8.248;2023-03-08T04:20:17;26.00;;;14.97;;
20776;SDS011;10548;47.504;8.248;2023-03-08T04:22:51;24.67;;;15.07;;
20776;SDS011;10548;47.504;8.248;2023-03-08T04:25:25;24.57;;;14.47;;
20776;SDS011;10548;47.504;8.248;2023-03-08T04:27:57;28.67;;;14.83;;
20776;SDS011;10548;47.504;8.248;2023-03-08T04:30:24;26.57;;;14.57;;
20776;SDS011;10548;47.504;8.248;2023-03-08T04:32:53;26.53;;;14.80;;
20776;SDS011;10548;47.504;8.248;2023-03-08T04:35:24;24.27;;;12.97;;
20776;SDS011;10548;47.504;8.248;2023-03-08T04:37:52;19.07;;;12.10;;
20776;SDS011;10548;47.504;8.248;2023-03-08T04:40:22;21.63;;;11.70;;
20776;SDS011;10548;47.504;8.248;2023-03-08T04:42:54;21.13;;;12.83;;
20776;SDS011;10548;47.504;8.248;2023-03-08T04:45:31;20.23;;;12.13;;
20776;SDS011;10548;47.504;8.248;2023-03-08T04:48:02;20.97;;;11.40;;
20776;SDS011;10548;47.504;8.248;2023-03-08T04:50:31;20.03;;;12.13;;
20776;SDS011;10548;47.504;8.248;2023-03-08T04:52:58;21.50;;;12.40;;
20776;SDS011;10548;47.504;8.248;2023-03-08T04:55:26;20.03;;;11.97;;
20776;SDS011;10548;47.504;8.248;2023-03-08T04:57:53;19.10;;;11.23;;
20776;SDS011;10548;47.504;8.248;2023-03-08T05:00:21;20.00;;;12.03;;
20776;SDS011;10548;47.504;8.248;2023-03-08T05:02:49;19.37;;;10.47;;
20776;SDS011;10548;47.504;8.248;2023-03-08T05:05:17;16.97;;;11.03;;
20776;SDS011;10548;47.504;8.248;2023-03-08T05:07:45;21.47;;;11.03;;
20776;SDS011;10548;47.504;8.248;2023-03-08T05:10:12;17.90;;;10.53;;
20776;SDS011;10548;47.504;8.248;2023-03-08T05:12:40;16.90;;;9.97;;
20776;SDS011;10548;47.504;8.248;2023-03-08T05:15:08;19.37;;;11.27;;
20776;SDS011;10548;47.504;8.248;2023-03-08T05:17:35;18.40;;;10.77;;
20776;SDS011;10548;47.504;8.248;2023-03-08T05:20:03;18.90;;;11.00;;
20776;SDS011;10548;47.504;8.248;2023-03-08T05:22:35;15.83;;;9.43;;
20776;SDS011;10548;47.504;8.248;2023-03-08T05:25:23;17.10;;;10.27;;
20776;SDS011;10548;47.504;8.248;2023-03-08T05:27:50;16.47;;;10.13;;
20776;SDS011;10548;47.504;8.248;2023-03-08T05:30:20;16.47;;;10.03;;
20776;SDS011;10548;47.504;8.248;2023-03-08T05:32:48;20.67;;;11.43;;
20776;SDS011;10548;47.504;8.248;2023-03-08T05:35:15;14.87;;;10.30;;
20776;SDS011;10548;47.504;8.248;2023-03-08T05:37:43;15.73;;;10.20;;
20776;SDS011;10548;47.504;8.248;2023-03-08T05:40:10;20.47;;;9.67;;
20776;SDS011;10548;47.504;8.248;2023-03-08T05:42:41;13.87;;;8.63;;
20776;SDS011;10548;47.504;8.248;2023-03-08T05:45:09;24.73;;;9.20;;
20776;SDS011;10548;47.504;8.248;2023-03-08T05:47:38;14.13;;;9.00;;
20776;SDS011;10548;47.504;8.248;2023-03-08T05:50:07;15.77;;;8.97;;
20776;SDS011;10548;47.504;8.248;2023-03-08T05:52:37;13.53;;;8.80;;
20776;SDS011;10548;47.504;8.248;2023-03-08T05:55:11;12.63;;;8.60;;
20776;SDS011;10548;47.504;8.248;2023-03-08T05:57:46;15.17;;;8.40;;
20776;SDS011;10548;47.504;8.248;2023-03-08T06:00:14;15.17;;;8.67;;
20776;SDS011;10548;47.504;8.248;2023-03-08T06:02:41;17.10;;;9.37;;
20776;SDS011;10548;47.504;8.248;2023-03-08T06:05:10;13.97;;;8.27;;
20776;SDS011;10548;47.504;8.248;2023-03-08T06:07:38;18.30;;;9.30;;
20776;SDS011;10548;47.504;8.248;2023-03-08T06:10:09;16.07;;;8.40;;
20776;SDS011;10548;47.504;8.248;2023-03-08T06:12:37;15.00;;;8.27;;
20776;SDS011;10548;47.504;8.248;2023-03-08T06:15:07;13.40;;;8.40;;
20776;SDS011;10548;47.504;8.248;2023-03-08T06:17:36;13.93;;;8.53;;
20776;SDS011;10548;47.504;8.248;2023-03-08T06:20:04;17.47;;;8.67;;
20776;SDS011;10548;47.504;8.248;2023-03-08T06:22:34;14.40;;;8.07;;
20776;SDS011;10548;47.504;8.248;2023-03-08T06:25:01;17.80;;;8.60;;
20776;SDS011;10548;47.504;8.248;2023-03-08T06:27:33;14.83;;;8.83;;
20776;SDS011;10548;47.504;8.248;2023-03-08T06:30:05;14.13;;;8.00;;
20776;SDS011;10548;47.504;8.248;2023-03-08T06:32:35;11.50;;;7.43;;
20776;SDS011;10548;47.504;8.248;2023-03-08T06:35:04;17.03;;;8.70;;
20776;SDS011;10548;47.504;8.248;2023-03-08T06:37:38;13.93;;;8.80;;
20776;SDS011;10548;47.504;8.248;2023-03-08T06:40:06;13.43;;;8.47;;
20776;SDS011;10548;47.504;8.248;2023-03-08T06:42:34;12.40;;;8.10;;
20776;SDS011;10548;47.504;8.248;2023-03-08T06:45:10;13.47;;;8.63;;
20776;SDS011;10548;47.504;8.248;2023-03-08T06:47:38;13.37;;;8.63;;
20776;SDS011;10548;47.504;8.248;2023-03-08T06:50:06;14.37;;;8.43;;
20776;SDS011;10548;47.504;8.248;2023-03-08T06:52:41;13.13;;;8.60;;
20776;SDS011;10548;47.504;8.248;2023-03-08T06:55:09;15.93;;;8.50;;
20776;SDS011;10548;47.504;8.248;2023-03-08T06:57:37;13.67;;;7.33;;
20776;SDS011;10548;47.504;8.248;2023-03-08T07:00:04;12.23;;;8.27;;
20776;SDS011;10548;47.504;8.248;2023-03-08T07:02:35;12.10;;;7.97;;
20776;SDS011;10548;47.504;8.248;2023-03-08T07:05:02;14.30;;;8.63;;
20776;SDS011;10548;47.504;8.248;2023-03-08T07:07:32;21.73;;;8.63;;
20776;SDS011;10548;47.504;8.248;2023-03-08T07:10:01;13.03;;;8.33;;
20776;SDS011;10548;47.504;8.248;2023-03-08T07:12:29;12.50;;;7.87;;
20776;SDS011;10548;47.504;8.248;2023-03-08T07:15:02;13.87;;;8.50;;
20776;SDS011;10548;47.504;8.248;2023-03-08T07:17:29;14.53;;;8.13;;
20776;SDS011;10548;47.504;8.248;2023-03-08T07:19:57;15.87;;;7.50;;
20776;SDS011;10548;47.504;8.248;2023-03-08T07:22:24;13.53;;;8.17;;
20776;SDS011;10548;47.504;8.248;2023-03-08T07:24:51;18.27;;;8.70;;
20776;SDS011;10548;47.504;8.248;2023-03-08T07:27:18;20.03;;;8.03;;
20776;SDS011;10548;47.504;8.248;2023-03-08T07:29:45;17.13;;;8.50;;
20776;SDS011;10548;47.504;8.248;2023-03-08T07:32:12;12.47;;;8.63;;
20776;SDS011;10548;47.504;8.248;2023-03-08T07:34:39;19.37;;;10.23;;
20776;SDS011;10548;47.504;8.248;2023-03-08T07:37:24;15.47;;;8.80;;
20776;SDS011;10548;47.504;8.248;2023-03-08T07:39:52;13.60;;;8.40;;
20776;SDS011;10548;47.504;8.248;2023-03-08T07:42:19;14.20;;;8.13;;
20776;SDS011;10548;47.504;8.248;2023-03-08T07:44:52;12.53;;;7.93;;
20776;SDS011;10548;47.504;8.248;2023-03-08T07:47:19;13.47;;;7.43;;
20776;SDS011;10548;47.504;8.248;2023-03-08T07:49:47;12.47;;;8.40;;
20776;SDS011;10548;47.504;8.248;2023-03-08T07:52:14;14.67;;;7.73;;
20776;SDS011;10548;47.504;8.248;2023-03-08T07:54:41;12.57;;;8.20;;
20776;SDS011;10548;47.504;8.248;2023-03-08T07:57:11;11.73;;;6.93;;
20776;SDS011;10548;47.504;8.248;2023-03-08T07:59:40;11.83;;;7.10;;
20776;SDS011;10548;47.504;8.248;2023-03-08T08:02:10;11.83;;;7.63;;
20776;SDS011;10548;47.504;8.248;2023-03-08T08:04:39;13.83;;;8.20;;
20776;SDS011;10548;47.504;8.248;2023-03-08T08:07:10;12.07;;;7.80;;
20776;SDS011;10548;47.504;8.248;2023-03-08T08:09:38;13.70;;;7.50;;
20776;SDS011;10548;47.504;8.248;2023-03-08T08:12:05;10.57;;;7.30;;
20776;SDS011;10548;47.504;8.248;2023-03-08T08:14:33;8.87;;;6.40;;
20776;SDS011;10548;47.504;8.248;2023-03-08T08:17:00;14.70;;;8.60;;
20776;SDS011;10548;47.504;8.248;2023-03-08T08:19:27;11.67;;;6.53;;
20776;SDS011;10548;47.504;8.248;2023-03-08T08:21:55;8.60;;;5.73;;
20776;SDS011;10548;47.504;8.248;2023-03-08T08:24:22;10.77;;;6.43;;
20776;SDS011;10548;47.504;8.248;2023-03-08T08:26:49;8.80;;;5.53;;
20776;SDS011;10548;47.504;8.248;2023-03-08T08:29:16;9.30;;;5.23;;
20776;SDS011;10548;47.504;8.248;2023-03-08T08:31:43;8.57;;;4.97;;
20776;SDS011;10548;47.504;8.248;2023-03-08T08:34:10;6.87;;;4.50;;
20776;SDS011;10548;47.504;8.248;2023-03-08T08:36:37;10.90;;;5.33;;
20776;SDS011;10548;47.504;8.248;2023-03-08T08:39:04;8.07;;;4.80;;
20776;SDS011;10548;47.504;8.248;2023-03-08T08:41:32;8.10;;;4.53;;
20776;SDS011;10548;47.504;8.248;2023-03-08T08:43:59;8.80;;;5.00;;
20776;SDS011;10548;47.504;8.248;2023-03-08T08:46:26;6.87;;;4.77;;
20776;SDS011;10548;47.504;8.248;2023-03-08T08:48:54;5.40;;;3.53;;
20776;SDS011;10548;47.504;8.248;2023-03-08T08:51:23;5.83;;;3.87;;
20776;SDS011;10548;47.504;8.248;2023-03-08T08:53:50;5.37;;;3.33;;
20776;SDS011;10548;47.504;8.248;2023-03-08T08:56:25;4.23;;;3.07;;
20776;SDS011;10548;47.504;8.248;2023-03-08T08:58:58;8.30;;;5.13;;
20776;SDS011;10548;47.504;8.248;2023-03-08T09:01:28;7.93;;;3.17;;
20776;SDS011;10548;47.504;8.248;2023-03-08T09:03:57;10.47;;;3.93;;
20776;SDS011;10548;47.504;8.248;2023-03-08T09:06:25;5.63;;;3.23;;
20776;SDS011;10548;47.504;8.248;2023-03-08T09:08:54;6.17;;;3.20;;
20776;SDS011;10548;47.504;8.248;2023-03-08T09:11:23;7.73;;;3.10;;
20776;SDS011;10548;47.504;8.248;2023-03-08T09:13:51;3.70;;;2.23;;
20776;SDS011;10548;47.504;8.248;2023-03-08T09:16:26;3.50;;;2.60;;
20776;SDS011;10548;47.504;8.248;2023-03-08T09:18:55;2.80;;;1.80;;
20776;SDS011;10548;47.504;8.248;2023-03-08T09:21:24;5.13;;;2.53;;
20776;SDS011;10548;47.504;8.248;2023-03-08T09:23:52;2.70;;;1.97;;
20776;SDS011;10548;47.504;8.248;2023-03-08T09:26:19;3.23;;;2.00;;
20776;SDS011;10548;47.504;8.248;2023-03-08T09:28:46;3.30;;;2.03;;
20776;SDS011;10548;47.504;8.248;2023-03-08T09:31:14;7.43;;;1.97;;
20776;SDS011;10548;47.504;8.248;2023-03-08T09:33:49;4.93;;;1.90;;
20776;SDS011;10548;47.504;8.248;2023-03-08T09:36:17;5.03;;;1.90;;
20776;SDS011;10548;47.504;8.248;2023-03-08T09:38:46;3.03;;;2.10;;
20776;SDS011;10548;47.504;8.248;2023-03-08T09:50:48;4.30;;;2.10;;
20776;SDS011;10548;47.504;8.248;2023-03-08T09:53:25;2.33;;;1.50;;
20776;SDS011;10548;47.504;8.248;2023-03-08T09:56:06;2.87;;;1.60;;
20776;SDS011;10548;47.504;8.248;2023-03-08T09:58:57;2.27;;;1.70;;
20776;SDS011;10548;47.504;8.248;2023-03-08T10:01:35;4.87;;;1.70;;
20776;SDS011;10548;47.504;8.248;2023-03-08T10:04:12;2.13;;;1.67;;
20776;SDS011;10548;47.504;8.248;2023-03-08T10:10:01;2.33;;;1.33;;
20776;SDS011;10548;47.504;8.248;2023-03-08T10:13:36;2.97;;;1.60;;
20776;SDS011;10548;47.504;8.248;2023-03-08T10:15:49;1.57;;;1.20;;
20776;SDS011;10548;47.504;8.248;2023-03-08T10:21:50;3.90;;;1.40;;
20776;SDS011;10548;47.504;8.248;2023-03-08T10:24:23;3.77;;;1.10;;
20776;SDS011;10548;47.504;8.248;2023-03-08T10:27:00;1.53;;;1.13;;
20776;SDS011;10548;47.504;8.248;2023-03-08T10:29:48;1.10;;;1.00;;
20776;SDS011;10548;47.504;8.248;2023-03-08T10:32:19;1.80;;;0.83;;
20776;SDS011;10548;47.504;8.248;2023-03-08T10:34:48;2.57;;;1.10;;
20776;SDS011;10548;47.504;8.248;2023-03-08T10:37:15;1.90;;;1.00;;
20776;SDS011;10548;47.504;8.248;2023-03-08T10:39:49;1.43;;;0.93;;
20776;SDS011;10548;47.504;8.248;2023-03-08T10:42:20;2.97;;;1.20;;
20776;SDS011;10548;47.504;8.248;2023-03-08T10:45:09;1.63;;;0.90;;
20776;SDS011;10548;47.504;8.248;2023-03-08T10:47:52;1.03;;;0.80;;
20776;SDS011;10548;47.504;8.248;2023-03-08T10:50:42;2.27;;;0.73;;
20776;SDS011;10548;47.504;8.248;2023-03-08T10:53:16;1.50;;;1.17;;
20776;SDS011;10548;47.504;8.248;2023-03-08T10:55:48;3.27;;;0.80;;
20776;SDS011;10548;47.504;8.248;2023-03-08T10:58:34;0.87;;;0.80;;
20776;SDS011;10548;47.504;8.248;2023-03-08T11:01:08;0.93;;;0.70;;
20776;SDS011;10548;47.504;8.248;2023-03-08T11:03:56;2.23;;;0.80;;
20776;SDS011;10548;47.504;8.248;2023-03-08T11:06:44;2.57;;;0.90;;
20776;SDS011;10548;47.504;8.248;2023-03-08T11:09:28;1.03;;;0.90;;
20776;SDS011;10548;47.504;8.248;2023-03-08T11:11:57;2.03;;;0.80;;
20776;SDS011;10548;47.504;8.248;2023-03-08T11:14:26;1.40;;;0.80;;
20776;SDS011;10548;47.504;8.248;2023-03-08T11:17:01;2.50;;;0.70;;
20776;SDS011;10548;47.504;8.248;2023-03-08T11:26:00;0.70;;;0.70;;
20776;SDS011;10548;47.504;8.248;2023-03-08T11:29:05;1.97;;;0.70;;
20776;SDS011;10548;47.504;8.248;2023-03-08T11:35:54;3.63;;;1.03;;
20776;SDS011;10548;47.504;8.248;2023-03-08T11:38:42;0.63;;;0.63;;
20776;SDS011;10548;47.504;8.248;2023-03-08T11:41:48;1.00;;;0.67;;
20776;SDS011;10548;47.504;8.248;2023-03-08T11:44:52;2.27;;;0.93;;
20776;SDS011;10548;47.504;8.248;2023-03-08T11:47:36;0.80;;;0.70;;
20776;SDS011;10548;47.504;8.248;2023-03-08T11:50:38;0.97;;;0.70;;
20776;SDS011;10548;47.504;8.248;2023-03-08T11:53:55;1.20;;;0.70;;
20776;SDS011;10548;47.504;8.248;2023-03-08T11:56:56;1.27;;;0.70;;
20776;SDS011;10548;47.504;8.248;2023-03-08T11:59:28;5.63;;;0.67;;
20776;SDS011;10548;47.504;8.248;2023-03-08T12:02:12;1.73;;;0.80;;
20776;SDS011;10548;47.504;8.248;2023-03-08T12:05:09;1.13;;;0.73;;
20776;SDS011;10548;47.504;8.248;2023-03-08T12:07:50;0.67;;;0.67;;
20776;SDS011;10548;47.504;8.248;2023-03-08T12:10:41;1.23;;;0.80;;
20776;SDS011;10548;47.504;8.248;2023-03-08T12:13:31;1.60;;;1.00;;
20776;SDS011;10548;47.504;8.248;2023-03-08T12:16:24;1.30;;;0.77;;
20776;SDS011;10548;47.504;8.248;2023-03-08T12:19:10;0.93;;;0.50;;
20776;SDS011;10548;47.504;8.248;2023-03-08T12:22:00;0.83;;;0.80;;
20776;SDS011;10548;47.504;8.248;2023-03-08T12:27:55;3.23;;;0.60;;
20776;SDS011;10548;47.504;8.248;2023-03-08T12:31:07;0.60;;;0.50;;
20776;SDS011;10548;47.504;8.248;2023-03-08T12:34:21;1.33;;;0.60;;
20776;SDS011;10548;47.504;8.248;2023-03-08T12:37:18;1.10;;;0.80;;
20776;SDS011;10548;47.504;8.248;2023-03-08T12:43:15;0.80;;;0.80;;
20776;SDS011;10548;47.504;8.248;2023-03-08T12:48:46;0.80;;;0.80;;
20776;SDS011;10548;47.504;8.248;2023-03-08T12:51:19;1.87;;;0.93;;
20776;SDS011;10548;47.504;8.248;2023-03-08T12:54:01;0.93;;;0.73;;
20776;SDS011;10548;47.504;8.248;2023-03-08T12:56:51;1.47;;;0.80;;
20776;SDS011;10548;47.504;8.248;2023-03-08T12:59:27;1.03;;;0.80;;
20776;SDS011;10548;47.504;8.248;2023-03-08T13:05:19;0.87;;;0.70;;
20776;SDS011;10548;47.504;8.248;2023-03-08T13:08:06;1.23;;;0.90;;
20776;SDS011;10548;47.504;8.248;2023-03-08T13:13:46;0.70;;;0.70;;
20776;SDS011;10548;47.504;8.248;2023-03-08T13:16:33;1.00;;;0.80;;
20776;SDS011;10548;47.504;8.248;2023-03-08T13:22:05;1.27;;;0.93;;
20776;SDS011;10548;47.504;8.248;2023-03-08T13:24:50;1.47;;;1.10;;
20776;SDS011;10548;47.504;8.248;2023-03-08T13:27:39;1.17;;;0.93;;
20776;SDS011;10548;47.504;8.248;2023-03-08T13:30:35;1.80;;;0.90;;
20776;SDS011;10548;47.504;8.248;2023-03-08T13:33:08;0.80;;;0.80;;
20776;SDS011;10548;47.504;8.248;2023-03-08T13:35:40;0.80;;;0.70;;
20776;SDS011;10548;47.504;8.248;2023-03-08T13:38:15;1.93;;;1.13;;
20776;SDS011;10548;47.504;8.248;2023-03-08T13:40:53;2.23;;;0.90;;
20776;SDS011;10548;47.504;8.248;2023-03-08T13:43:22;4.93;;;0.80;;
20776;SDS011;10548;47.504;8.248;2023-03-08T13:45:52;4.23;;;1.13;;
20776;SDS011;10548;47.504;8.248;2023-03-08T13:48:22;2.87;;;1.17;;
20776;SDS011;10548;47.504;8.248;2023-03-08T13:50:52;0.90;;;0.80;;
20776;SDS011;10548;47.504;8.248;2023-03-08T13:53:21;1.63;;;1.00;;
20776;SDS011;10548;47.504;8.248;2023-03-08T13:55:55;2.17;;;0.90;;
20776;SDS011;10548;47.504;8.248;2023-03-08T13:58:26;3.20;;;1.10;;
20776;SDS011;10548;47.504;8.248;2023-03-08T14:01:00;1.60;;;0.90;;
20776;SDS011;10548;47.504;8.248;2023-03-08T14:03:42;1.80;;;0.83;;
20776;SDS011;10548;47.504;8.248;2023-03-08T14:06:23;1.63;;;0.90;;
20776;SDS011;10548;47.504;8.248;2023-03-08T14:08:56;1.30;;;0.80;;
20776;SDS011;10548;47.504;8.248;2023-03-08T14:11:30;1.83;;;1.10;;
20776;SDS011;10548;47.504;8.248;2023-03-08T14:13:59;4.70;;;1.10;;
20776;SDS011;10548;47.504;8.248;2023-03-08T14:16:34;1.97;;;1.20;;
20776;SDS011;10548;47.504;8.248;2023-03-08T14:22:08;6.83;;;1.40;;
20776;SDS011;10548;47.504;8.248;2023-03-08T14:25:03;1.30;;;0.97;;
20776;SDS011;10548;47.504;8.248;2023-03-08T14:27:34;1.53;;;1.10;;
20776;SDS011;10548;47.504;8.248;2023-03-08T14:30:14;3.80;;;1.50;;
20776;SDS011;10548;47.504;8.248;2023-03-08T14:35:52;2.57;;;1.13;;
20776;SDS011;10548;47.504;8.248;2023-03-08T14:38:27;1.30;;;0.90;;
20776;SDS011;10548;47.504;8.248;2023-03-08T14:40:56;2.30;;;1.17;;
20776;SDS011;10548;47.504;8.248;2023-03-08T14:43:26;1.40;;;1.00;;
20776;SDS011;10548;47.504;8.248;2023-03-08T14:45:54;5.37;;;1.17;;
20776;SDS011;10548;47.504;8.248;2023-03-08T14:48:31;2.60;;;1.03;;
20776;SDS011;10548;47.504;8.248;2023-03-08T14:51:01;2.03;;;1.07;;
20776;SDS011;10548;47.504;8.248;2023-03-08T14:53:33;1.27;;;0.90;;
20776;SDS011;10548;47.504;8.248;2023-03-08T14:56:21;3.47;;;1.00;;
20776;SDS011;10548;47.504;8.248;2023-03-08T14:58:49;3.17;;;1.20;;
20776;SDS011;10548;47.504;8.248;2023-03-08T15:01:27;2.30;;;1.10;;
20776;SDS011;10548;47.504;8.248;2023-03-08T15:04:00;3.03;;;1.10;;
20776;SDS011;10548;47.504;8.248;2023-03-08T15:06:33;2.13;;;1.23;;
20776;SDS011;10548;47.504;8.248;2023-03-08T15:09:02;1.17;;;1.07;;
20776;SDS011;10548;47.504;8.248;2023-03-08T15:11:32;1.30;;;0.80;;
20776;SDS011;10548;47.504;8.248;2023-03-08T15:14:00;2.97;;;1.10;;
20776;SDS011;10548;47.504;8.248;2023-03-08T15:16:28;2.23;;;1.00;;
20776;SDS011;10548;47.504;8.248;2023-03-08T15:18:56;3.90;;;1.20;;
20776;SDS011;10548;47.504;8.248;2023-03-08T15:21:24;1.97;;;1.27;;
20776;SDS011;10548;47.504;8.248;2023-03-08T15:23:53;6.80;;;0.93;;
20776;SDS011;10548;47.504;8.248;2023-03-08T15:26:22;2.03;;;1.20;;
20776;SDS011;10548;47.504;8.248;2023-03-08T15:28:52;2.03;;;1.20;;
20776;SDS011;10548;47.504;8.248;2023-03-08T15:31:20;3.80;;;1.20;;
20776;SDS011;10548;47.504;8.248;2023-03-08T15:33:48;2.57;;;1.10;;
20776;SDS011;10548;47.504;8.248;2023-03-08T15:36:16;2.20;;;1.40;;
20776;SDS011;10548;47.504;8.248;2023-03-08T15:38:44;2.03;;;1.40;;
20776;SDS011;10548;47.504;8.248;2023-03-08T15:41:12;1.30;;;1.20;;
20776;SDS011;10548;47.504;8.248;2023-03-08T15:43:41;2.53;;;1.47;;
20776;SDS011;10548;47.504;8.248;2023-03-08T15:46:10;2.80;;;1.50;;
20776;SDS011;10548;47.504;8.248;2023-03-08T15:48:39;2.37;;;1.63;;
20776;SDS011;10548;47.504;8.248;2023-03-08T15:51:13;1.90;;;1.60;;
20776;SDS011;10548;47.504;8.248;2023-03-08T15:53:44;2.20;;;1.50;;
20776;SDS011;10548;47.504;8.248;2023-03-08T15:56:11;11.80;;;2.13;;
20776;SDS011;10548;47.504;8.248;2023-03-08T15:58:41;3.47;;;1.87;;
20776;SDS011;10548;47.504;8.248;2023-03-08T16:01:09;2.23;;;1.60;;